createdAt,value
2019-04-11T00:02:24.757Z,12.27
2019-04-11T00:04:54.740Z,10.90
2019-04-11T00:07:24.653Z,11.53
2019-04-11T00:09:54.643Z,13.93
2019-04-11T00:12:24.456Z,10.43
2019-04-11T00:14:54.324Z,16.00
2019-04-11T00:17:24.125Z,10.73
2019-04-11T00:19:53.893Z,12.00
2019-04-11T00:22:23.694Z,11.97
2019-04-11T00:24:53.484Z,14.23
2019-04-11T00:27:23.272Z,9.70
2019-04-11T00:29:53.374Z,13.47
2019-04-11T00:32:23.373Z,9.83
2019-04-11T00:34:53.353Z,15.87
2019-04-11T00:37:23.272Z,11.80
2019-04-11T00:39:54.082Z,10.40
2019-04-11T00:42:24.030Z,12.47
2019-04-11T00:44:54.908Z,13.13
2019-04-11T00:47:24.874Z,9.40
2019-04-11T00:49:54.760Z,12.57
2019-04-11T00:52:25.739Z,14.40
2019-04-11T00:54:55.468Z,12.27
2019-04-11T00:57:25.253Z,11.07
2019-04-11T00:59:55.065Z,9.67
2019-04-11T01:02:25.272Z,15.87
2019-04-11T01:04:55.251Z,10.07
2019-04-11T01:07:25.056Z,10.17
2019-04-11T01:09:54.908Z,10.00
2019-04-11T01:12:24.891Z,12.07
2019-04-11T01:14:55.285Z,10.30
2019-04-11T01:17:25.430Z,8.30
2019-04-11T01:19:55.387Z,8.97
2019-04-11T01:22:25.170Z,9.07
2019-04-11T01:24:55.774Z,7.20
2019-04-11T01:27:25.894Z,14.17
2019-04-11T01:29:55.759Z,9.07
2019-04-11T01:32:26.404Z,9.40
2019-04-11T01:34:57.161Z,10.03
2019-04-11T01:37:27.986Z,7.67
2019-04-11T01:39:59.489Z,7.63
2019-04-11T01:42:29.888Z,9.20
2019-04-11T01:44:59.602Z,7.90
2019-04-11T01:47:47.393Z,8.07
2019-04-11T01:50:18.988Z,6.37
2019-04-11T01:52:48.801Z,8.17
2019-04-11T01:55:18.773Z,6.67
2019-04-11T01:57:49.818Z,8.43
2019-04-11T02:00:30.740Z,7.03
2019-04-11T02:03:03.228Z,6.70
2019-04-11T02:05:34.962Z,7.63
2019-04-11T02:08:05.068Z,5.67
2019-04-11T02:10:35.066Z,8.00
2019-04-11T02:13:05.847Z,7.43
2019-04-11T02:15:36.626Z,6.83
2019-04-11T02:18:07.559Z,6.80
2019-04-11T02:20:38.781Z,7.43
2019-04-11T02:23:26.840Z,7.97
2019-04-11T02:25:58.321Z,7.63
2019-04-11T02:28:28.702Z,8.93
2019-04-11T02:31:00.168Z,9.50
2019-04-11T02:33:30.710Z,7.87
2019-04-11T02:36:01.369Z,8.83
2019-04-11T02:38:32.703Z,8.50
2019-04-11T02:41:03.695Z,8.37
2019-04-11T02:43:36.335Z,9.00
2019-04-11T02:46:17.344Z,8.33
2019-04-11T02:48:37.860Z,7.50
2019-04-11T02:51:09.938Z,7.53
2019-04-11T02:53:41.020Z,8.33
2019-04-11T02:56:11.855Z,9.57
2019-04-11T02:58:41.730Z,9.60
2019-04-11T03:01:12.786Z,9.20
2019-04-11T03:03:42.967Z,13.27
2019-04-11T03:06:12.820Z,10.67
2019-04-11T03:08:43.530Z,6.93
2019-04-11T03:11:14.359Z,8.57
2019-04-11T03:13:47.282Z,9.07
2019-04-11T03:16:33.250Z,9.63
2019-04-11T03:19:08.488Z,10.10
2019-04-11T03:21:23.492Z,8.97
2019-04-11T03:23:52.886Z,8.23
2019-04-11T03:26:22.811Z,9.43
2019-04-11T03:28:56.198Z,8.10
2019-04-11T03:32:14.496Z,10.13
2019-04-11T03:39:22.010Z,11.77
2019-04-11T03:41:50.752Z,8.37
2019-04-11T03:44:15.890Z,10.33
2019-04-11T03:46:51.061Z,11.53
2019-04-11T03:49:20.724Z,11.33
2019-04-11T03:51:47.690Z,10.63
2019-04-11T03:54:18.007Z,13.73
2019-04-11T03:56:49.245Z,9.20
2019-04-11T03:59:22.871Z,10.37
2019-04-11T04:01:54.028Z,11.03
2019-04-11T04:04:23.978Z,9.23
2019-04-11T04:06:57.605Z,8.30
2019-04-11T04:09:29.109Z,8.80
2019-04-11T04:11:59.534Z,9.43
2019-04-11T04:14:42.854Z,8.90
2019-04-11T04:17:28.541Z,9.33
2019-04-11T04:20:17.192Z,9.17
2019-04-11T04:22:52.383Z,10.13
2019-04-11T04:25:24.127Z,9.73
2019-04-11T04:27:54.663Z,13.53
2019-04-11T04:30:27.078Z,10.77
2019-04-11T04:32:57.327Z,11.57
2019-04-11T04:35:28.398Z,10.70
2019-04-11T04:37:59.749Z,13.13
2019-04-11T04:40:49.572Z,12.93
2019-04-11T04:43:07.035Z,11.00
2019-04-11T04:45:54.139Z,11.17
2019-04-11T04:48:11.052Z,10.73
2019-04-11T04:50:39.265Z,11.00
2019-04-11T04:53:09.368Z,11.17
2019-04-11T04:55:39.100Z,13.60
2019-04-11T04:58:09.207Z,14.83
2019-04-11T05:00:39.635Z,13.77
2019-04-11T05:03:10.371Z,8.13
2019-04-11T05:05:42.221Z,10.13
2019-04-11T05:08:12.054Z,10.07
2019-04-11T05:10:41.845Z,13.10
2019-04-11T05:13:13.106Z,12.67
2019-04-11T05:15:43.689Z,9.40
2019-04-11T05:18:17.325Z,11.20
2019-04-11T05:20:46.303Z,12.03
2019-04-11T05:23:16.988Z,11.07
2019-04-11T05:25:46.924Z,9.83
2019-04-11T05:28:16.761Z,12.77
2019-04-11T05:30:46.965Z,16.30
2019-04-11T05:33:17.830Z,8.80
2019-04-11T05:35:47.998Z,10.77
2019-04-11T05:38:18.882Z,18.47
2019-04-11T05:40:48.715Z,11.53
2019-04-11T05:43:19.837Z,12.40
2019-04-11T05:45:53.635Z,10.80
2019-04-11T05:48:50.788Z,12.83
2019-04-11T05:51:39.017Z,11.20
2019-04-11T05:54:07.453Z,10.80
2019-04-11T05:56:35.462Z,16.80
2019-04-11T05:59:09.681Z,10.73
2019-04-11T06:01:44.600Z,15.97
2019-04-11T06:04:20.562Z,9.37
2019-04-11T06:06:49.341Z,10.70
2019-04-11T06:09:30.264Z,9.07
2019-04-11T06:12:03.338Z,14.03
2019-04-11T06:14:47.181Z,9.33
2019-04-11T06:17:18.778Z,13.47
2019-04-11T06:20:06.791Z,9.00
2019-04-11T06:22:38.252Z,9.03
2019-04-11T06:25:23.452Z,10.43
2019-04-11T06:27:58.084Z,13.43
2019-04-11T06:30:30.485Z,9.43
2019-04-11T06:33:17.138Z,16.13
2019-04-11T06:36:05.048Z,16.37
2019-04-11T06:38:51.561Z,11.37
2019-04-11T06:41:24.282Z,8.83
2019-04-11T06:43:56.371Z,17.30
2019-04-11T06:46:33.536Z,13.87
2019-04-11T06:49:20.426Z,12.27
2019-04-11T06:52:05.922Z,11.03
2019-04-11T06:54:43.455Z,13.77
2019-04-11T06:57:21.600Z,8.83
2019-04-11T06:59:52.470Z,10.73
2019-04-11T07:02:25.037Z,13.23
2019-04-11T07:04:56.505Z,12.78
2019-04-11T07:07:29.464Z,9.83
2019-04-11T07:10:02.075Z,9.13
2019-04-11T07:12:34.907Z,13.23
2019-04-11T07:15:12.635Z,8.47
2019-04-11T07:18:01.052Z,8.10
2019-04-11T07:20:38.491Z,11.17
2019-04-11T07:23:26.504Z,10.50
2019-04-11T07:25:58.180Z,11.00
2019-04-11T07:28:29.614Z,10.17
2019-04-11T07:31:04.532Z,11.93
2019-04-11T07:33:43.148Z,8.67
2019-04-11T07:36:31.638Z,7.27
2019-04-11T07:39:05.961Z,10.03
2019-04-11T07:41:38.985Z,7.10
2019-04-11T07:44:19.916Z,9.53
2019-04-11T07:46:58.207Z,8.47
2019-04-11T07:49:30.669Z,7.70
2019-04-11T07:52:02.573Z,7.13
2019-04-11T07:54:34.692Z,11.13
2019-04-11T07:57:26.217Z,8.83
2019-04-11T08:00:15.028Z,8.70
2019-04-11T08:03:01.965Z,8.63
2019-04-11T08:05:42.377Z,8.73
2019-04-11T08:08:19.663Z,9.10
2019-04-11T08:10:54.652Z,11.23
2019-04-11T08:13:32.171Z,14.83
2019-04-11T08:16:20.382Z,14.40
2019-04-11T08:19:08.355Z,11.07
2019-04-11T08:21:56.814Z,12.07
2019-04-11T08:24:29.869Z,8.37
2019-04-11T08:27:17.716Z,9.43
2019-04-11T08:29:50.106Z,9.70
2019-04-11T08:32:38.056Z,8.23
2019-04-11T08:35:26.805Z,7.70
2019-04-11T08:37:58.255Z,9.27
2019-04-11T08:40:33.640Z,7.87
2019-04-11T08:43:08.106Z,9.23
2019-04-11T08:45:58.243Z,7.43
2019-04-11T08:48:29.879Z,5.53
2019-04-11T08:51:08.667Z,5.73
2019-04-11T08:53:44.825Z,5.13
2019-04-11T08:56:16.801Z,6.47
2019-04-11T08:59:11.339Z,6.07
2019-04-11T09:01:42.397Z,5.07
2019-04-11T09:04:26.238Z,5.83
2019-04-11T09:06:57.333Z,5.93
2019-04-11T09:09:29.371Z,5.57
2019-04-11T09:12:00.945Z,7.30
2019-04-11T09:14:49.204Z,3.13
2019-04-11T09:17:21.958Z,3.17
2019-04-11T09:19:55.117Z,3.33
2019-04-11T09:22:39.471Z,3.80
2019-04-11T09:25:12.761Z,2.97
2019-04-11T09:28:00.831Z,3.23
2019-04-11T09:30:45.184Z,3.73
2019-04-11T09:33:25.764Z,6.33
2019-04-11T09:36:03.831Z,2.80
2019-04-11T09:38:35.369Z,2.90
2019-04-11T09:41:18.848Z,2.90
2019-04-11T09:43:48.669Z,4.57
2019-04-11T09:46:20.155Z,2.87
2019-04-11T09:49:00.421Z,4.37
2019-04-11T09:51:44.281Z,2.87
2019-04-11T09:54:19.670Z,4.00
2019-04-11T09:57:09.979Z,3.73
2019-04-11T09:59:47.721Z,2.53
2019-04-11T10:02:19.180Z,5.33
2019-04-11T10:04:50.547Z,3.93
2019-04-11T10:07:28.223Z,2.13
2019-04-11T10:10:00.218Z,3.20
2019-04-11T10:12:42.548Z,4.50
2019-04-11T10:15:13.546Z,3.10
2019-04-11T10:18:03.041Z,11.27
2019-04-11T10:20:34.898Z,4.20
2019-04-11T10:23:23.053Z,2.70
2019-04-11T10:25:53.844Z,2.60
2019-04-11T10:28:41.815Z,2.37
2019-04-11T10:31:12.613Z,2.50
2019-04-11T10:33:50.118Z,3.30
2019-04-11T10:36:31.421Z,3.30
2019-04-11T10:39:21.591Z,2.17
2019-04-11T10:41:56.218Z,2.33
2019-04-11T10:44:40.375Z,3.17
2019-04-11T10:47:12.466Z,2.30
2019-04-11T10:49:54.593Z,2.70
2019-04-11T10:52:34.272Z,2.40
2019-04-11T10:55:19.537Z,4.17
2019-04-11T10:58:06.782Z,2.30
2019-04-11T11:00:41.139Z,3.30
2019-04-11T11:03:13.764Z,2.73
2019-04-11T11:05:49.328Z,3.20
2019-04-11T11:08:31.144Z,2.80
2019-04-11T11:11:08.321Z,2.67
2019-04-11T11:13:42.765Z,4.40
2019-04-11T11:16:13.931Z,3.20
2019-04-11T11:19:19.484Z,2.50
2019-04-11T11:21:24.990Z,8.13
2019-04-11T11:24:10.787Z,2.27
2019-04-11T11:26:41.568Z,3.20
2019-04-11T11:29:15.489Z,2.33
2019-04-11T11:31:49.323Z,1.97
2019-04-11T11:34:22.035Z,2.53
2019-04-11T11:36:55.059Z,2.33
2019-04-11T11:39:33.441Z,2.30
2019-04-11T11:42:22.112Z,2.27
2019-04-11T11:44:57.260Z,2.20
2019-04-11T11:47:47.282Z,2.37
2019-04-11T11:50:21.773Z,3.77
2019-04-11T11:53:13.176Z,3.00
2019-04-11T11:55:45.327Z,2.00
2019-04-11T11:58:33.457Z,2.50
2019-04-11T12:01:07.021Z,3.07
2019-04-11T12:03:40.899Z,2.03
2019-04-11T12:06:10.865Z,5.63
2019-04-11T12:08:51.493Z,2.20
2019-04-11T12:11:22.347Z,2.53
2019-04-11T12:14:09.730Z,2.60
2019-04-11T12:17:01.915Z,2.20
2019-04-11T12:19:42.656Z,2.37
2019-04-11T12:22:02.627Z,3.83
2019-04-11T12:24:34.523Z,2.50
2019-04-11T12:27:16.427Z,3.70
2019-04-11T12:29:52.018Z,2.30
2019-04-11T12:32:30.545Z,5.43
2019-04-11T12:35:18.423Z,2.33
2019-04-11T12:37:51.792Z,3.70
2019-04-11T12:40:39.471Z,3.10
2019-04-11T12:43:10.881Z,3.30
2019-04-11T12:45:58.477Z,3.13
2019-04-11T12:48:29.887Z,4.83
2019-04-11T12:51:19.276Z,3.43
2019-04-11T12:53:49.195Z,3.03
2019-04-11T12:56:26.572Z,2.80
2019-04-11T12:58:56.881Z,2.87
2019-04-11T13:01:28.503Z,2.43
2019-04-11T13:04:16.374Z,3.60
2019-04-11T13:06:48.416Z,2.43
2019-04-11T13:09:29.168Z,2.67
2019-04-11T13:12:17.200Z,4.73
2019-04-11T13:14:57.664Z,3.00
2019-04-11T13:17:44.051Z,2.77
2019-04-11T13:20:31.807Z,2.30
2019-04-11T13:23:03.225Z,3.17
2019-04-11T13:25:45.496Z,3.97
2019-04-11T13:28:15.060Z,2.93
2019-04-11T13:30:49.393Z,2.77
2019-04-11T13:33:21.005Z,3.97
2019-04-11T13:36:04.240Z,3.50
2019-04-11T13:38:35.960Z,3.30
2019-04-11T13:41:22.658Z,3.13
2019-04-11T13:43:54.200Z,3.20
2019-04-11T13:46:37.332Z,4.30
2019-04-11T13:49:17.922Z,3.97
2019-04-11T13:52:42.396Z,2.27
2019-04-11T13:55:14.057Z,2.20
2019-04-11T13:58:02.031Z,3.47
2019-04-11T14:00:39.603Z,2.20
2019-04-11T14:03:11.231Z,4.37
2019-04-11T14:05:45.691Z,3.37
2019-04-11T14:08:29.122Z,3.87
2019-04-11T14:11:12.253Z,4.30
2019-04-11T14:13:43.708Z,4.13
2019-04-11T14:16:21.118Z,3.63
2019-04-11T14:19:11.640Z,3.00
2019-04-11T14:21:43.778Z,7.07
2019-04-11T14:24:15.401Z,3.60
2019-04-11T14:26:52.840Z,3.73
2019-04-11T14:29:40.507Z,3.57
2019-04-11T14:32:23.198Z,2.80
2019-04-11T14:34:54.265Z,2.90
2019-04-11T14:37:38.403Z,3.53
2019-04-11T14:40:18.624Z,5.67
2019-04-11T14:43:05.080Z,4.20
2019-04-11T14:45:45.452Z,15.20
2019-04-11T14:48:17.119Z,7.40
2019-04-11T14:51:00.747Z,6.63
2019-04-11T14:53:50.699Z,6.00
2019-04-11T14:56:28.187Z,6.03
2019-04-11T14:59:15.935Z,3.53
2019-04-11T15:01:47.336Z,6.30
2019-04-11T15:04:24.697Z,3.43
2019-04-11T15:06:56.054Z,3.57
2019-04-11T15:09:27.645Z,4.83
2019-04-11T15:11:59.039Z,3.77
2019-04-11T15:14:42.595Z,5.27
2019-04-11T15:17:24.313Z,4.57
2019-04-11T15:19:56.152Z,4.10
2019-04-11T15:22:27.641Z,3.50
2019-04-11T15:25:05.726Z,5.70
2019-04-11T15:27:38.506Z,3.27
2019-04-11T15:30:16.670Z,4.93
2019-04-11T15:33:03.069Z,4.50
2019-04-11T15:35:32.939Z,4.60
2019-04-11T15:38:20.827Z,5.43
2019-04-11T15:40:52.251Z,3.73
2019-04-11T15:43:43.423Z,8.47
2019-04-11T15:46:14.692Z,8.47
2019-04-11T15:48:55.866Z,24.20
2019-04-11T15:51:29.912Z,6.40
2019-04-11T15:54:01.374Z,10.97
2019-04-11T15:56:49.069Z,6.30
2019-04-11T15:59:23.321Z,4.87
2019-04-11T16:02:10.145Z,3.67
2019-04-11T16:04:47.719Z,5.00
2019-04-11T16:07:28.185Z,3.77
2019-04-11T16:09:59.583Z,4.43
2019-04-11T16:12:43.352Z,3.87
2019-04-11T16:15:16.874Z,6.37
2019-04-11T16:18:06.423Z,4.13
2019-04-11T16:20:36.742Z,6.70
2019-04-11T16:23:26.366Z,4.70
2019-04-11T16:25:55.997Z,6.17
2019-04-11T16:28:33.301Z,6.40
2019-04-11T16:31:03.184Z,5.30
2019-04-11T16:33:49.588Z,3.83
2019-04-11T16:36:30.126Z,4.90
2019-04-11T16:39:13.700Z,6.07
2019-04-11T16:41:56.976Z,5.60
2019-04-11T16:44:46.209Z,4.90
2019-04-11T16:47:33.545Z,3.90
2019-04-11T16:50:03.607Z,7.03
2019-04-11T16:52:38.316Z,5.33
2019-04-11T16:55:10.179Z,9.70
2019-04-11T16:57:44.010Z,9.80
2019-04-11T17:00:12.969Z,7.53
2019-04-11T17:02:42.849Z,4.87
2019-04-11T17:05:12.602Z,4.03
2019-04-11T17:07:53.890Z,4.37
2019-04-11T17:10:28.962Z,5.63
2019-04-11T17:12:58.669Z,8.57
2019-04-11T17:15:30.470Z,10.73
2019-04-11T17:18:02.081Z,5.20
2019-04-11T17:20:31.113Z,7.10
2019-04-11T17:23:00.898Z,8.70
2019-04-11T17:25:30.580Z,7.53
2019-04-11T17:28:00.301Z,4.43
2019-04-11T17:30:30.105Z,4.73
2019-04-11T17:32:59.808Z,5.87
2019-04-11T17:35:31.584Z,9.83
2019-04-11T17:38:04.091Z,8.47
2019-04-11T17:40:34.935Z,8.83
2019-04-11T17:43:04.286Z,7.10
2019-04-11T17:45:34.124Z,5.23
2019-04-11T17:48:03.953Z,5.93
2019-04-11T17:50:34.997Z,6.53
2019-04-11T17:53:05.307Z,6.97
2019-04-11T17:55:34.976Z,7.07
2019-04-11T17:58:04.812Z,5.57
2019-04-11T18:00:38.907Z,7.23
2019-04-11T18:03:11.829Z,7.47
2019-04-11T18:05:40.037Z,13.87
2019-04-11T18:08:09.723Z,22.50
2019-04-11T18:10:39.530Z,7.27
2019-04-11T18:13:09.211Z,5.53
2019-04-11T18:15:38.893Z,5.47
2019-04-11T18:18:08.678Z,6.83
2019-04-11T18:20:38.440Z,7.70
2019-04-11T18:23:08.214Z,8.00
2019-04-11T18:25:37.966Z,9.50
2019-04-11T18:28:07.804Z,13.80
2019-04-11T18:30:37.555Z,6.40
2019-04-11T18:33:07.433Z,18.00
2019-04-11T18:35:37.399Z,34.33
2019-04-11T18:38:07.344Z,12.07
2019-04-11T18:40:37.996Z,9.10
2019-04-11T18:43:16.020Z,7.20
2019-04-11T18:45:45.699Z,9.53
2019-04-11T18:48:15.768Z,10.10
2019-04-11T18:50:50.860Z,11.50
2019-04-11T18:53:20.184Z,9.63
2019-04-11T18:55:50.470Z,7.13
2019-04-11T18:58:20.390Z,9.93
2019-04-11T19:00:50.359Z,9.20
2019-04-11T19:03:20.390Z,9.03
2019-04-11T19:05:51.033Z,8.70
2019-04-11T19:08:21.848Z,7.97
2019-04-11T19:10:52.012Z,15.90
2019-04-11T19:13:31.361Z,11.00
2019-04-11T19:16:01.284Z,19.70
2019-04-11T19:18:31.265Z,8.03
2019-04-11T19:21:01.149Z,9.70
2019-04-11T19:23:33.978Z,11.07
2019-04-11T19:26:06.773Z,9.57
2019-04-11T19:28:37.120Z,10.67
2019-04-11T19:31:14.676Z,13.70
2019-04-11T19:33:46.308Z,11.60
2019-04-11T19:36:16.042Z,14.60
2019-04-11T19:38:45.889Z,6.47
2019-04-11T19:41:21.630Z,8.10
2019-04-11T19:43:51.477Z,7.00
2019-04-11T19:46:21.453Z,6.50
2019-04-11T19:48:55.327Z,14.53
2019-04-11T19:51:28.520Z,14.05
2019-04-11T19:53:56.589Z,15.10
2019-04-11T19:56:28.162Z,6.77
2019-04-11T19:58:57.946Z,10.63
2019-04-11T20:01:27.697Z,13.43
2019-04-11T20:03:57.590Z,10.60
2019-04-11T20:06:27.505Z,13.63
2019-04-11T20:08:57.327Z,12.13
2019-04-11T20:11:29.386Z,10.60
2019-04-11T20:14:00.007Z,11.73
2019-04-11T20:16:41.045Z,10.30
2019-04-11T20:19:01.866Z,11.00
2019-04-11T20:21:31.697Z,13.17
2019-04-11T20:24:01.545Z,19.33
2019-04-11T20:26:31.447Z,16.07
2019-04-11T20:29:01.143Z,18.90
2019-04-11T20:31:31.068Z,13.67
2019-04-11T20:34:01.666Z,13.10
2019-04-11T20:36:33.613Z,12.17
2019-04-11T20:39:05.760Z,10.23
2019-04-11T20:41:35.584Z,11.67
2019-04-11T20:44:05.481Z,10.33
2019-04-11T20:46:35.656Z,10.93
2019-04-11T20:49:05.567Z,10.53
2019-04-11T20:51:35.421Z,9.07
2019-04-11T20:54:07.257Z,9.37
2019-04-11T20:56:39.840Z,10.70
2019-04-11T20:59:10.277Z,13.40
2019-04-11T21:01:40.257Z,9.70
2019-04-11T21:04:10.069Z,8.87
2019-04-11T21:06:39.909Z,8.43
2019-04-11T21:09:11.647Z,9.57
2019-04-11T21:11:42.372Z,10.43
2019-04-11T21:14:12.119Z,8.37
2019-04-11T21:16:42.043Z,9.27
2019-04-11T21:19:11.727Z,8.93
2019-04-11T21:21:41.654Z,7.83
2019-04-11T21:24:11.533Z,6.80
2019-04-11T21:26:41.303Z,10.90
2019-04-11T21:29:11.193Z,10.33
2019-04-11T21:31:40.960Z,8.37
2019-04-11T21:34:10.763Z,9.40
2019-04-11T21:36:40.525Z,11.43
2019-04-11T21:39:10.326Z,8.73
2019-04-11T21:41:40.101Z,8.60
2019-04-11T21:44:09.872Z,10.83
2019-04-11T21:46:41.985Z,8.47
2019-04-11T21:49:11.212Z,10.10
2019-04-11T21:51:42.304Z,8.67
2019-04-11T21:54:15.086Z,7.60
2019-04-11T21:56:49.238Z,9.63
2019-04-11T21:59:19.995Z,8.03
2019-04-11T22:01:47.961Z,9.57
2019-04-11T22:04:17.864Z,8.47
2019-04-11T22:06:47.694Z,9.67
2019-04-11T22:09:17.773Z,9.77
2019-04-11T22:11:47.614Z,7.10
2019-04-11T22:14:17.392Z,9.90
2019-04-11T22:16:47.272Z,8.63
2019-04-11T22:19:17.163Z,8.40
2019-04-11T22:21:47.001Z,6.47
2019-04-11T22:24:16.776Z,6.80
2019-04-11T22:26:50.132Z,8.60
2019-04-11T22:29:18.188Z,7.60
2019-04-11T22:31:48.005Z,8.37
2019-04-11T22:34:26.002Z,9.07
2019-04-11T22:36:59.599Z,8.63
2019-04-11T22:39:28.941Z,7.10
2019-04-11T22:42:00.131Z,5.80
2019-04-11T22:44:29.956Z,9.00
2019-04-11T22:46:59.786Z,7.23
2019-04-11T22:49:29.561Z,10.53
2019-04-11T22:51:59.345Z,9.73
2019-04-11T22:54:29.155Z,8.50
2019-04-11T22:56:59.141Z,8.87
2019-04-11T22:59:28.886Z,6.57
2019-04-11T23:02:00.511Z,9.30
2019-04-11T23:04:30.340Z,10.40
2019-04-11T23:07:00.098Z,5.80
2019-04-11T23:09:29.963Z,6.20
2019-04-11T23:11:59.880Z,7.23
2019-04-11T23:14:29.705Z,7.43
2019-04-11T23:16:59.471Z,6.67
2019-04-11T23:19:29.386Z,7.37
2019-04-11T23:21:59.214Z,8.53
2019-04-11T23:24:29.090Z,5.53
2019-04-11T23:26:58.834Z,9.53
2019-04-11T23:29:28.634Z,6.53
2019-04-11T23:31:58.428Z,10.63
2019-04-11T23:34:28.188Z,7.07
2019-04-11T23:36:58.044Z,8.20
2019-04-11T23:39:27.751Z,7.43
2019-04-11T23:41:57.520Z,6.23
2019-04-11T23:44:27.397Z,9.13
2019-04-11T23:46:57.248Z,13.27
2019-04-11T23:49:27.045Z,6.60
2019-04-11T23:51:56.767Z,6.73
2019-04-11T23:54:46.282Z,11.67
2019-04-11T23:57:15.955Z,7.43
2019-04-11T23:59:45.697Z,8.23
